Fort Benning, GA

10:58 AM EDT on May 23, 2015 (GMT -0400)
RAWS | | Change Station
CLOSE
Current Station
Personal Weather Station
Location: Fort Benning, GA
Elevation: 466 ft
Nearby Weather Stations

Elev 466 ft 32.40 °N, 84.87 °W | Updated 48 minutes ago

Clear
Clear
76 °F
Feels Like 78 °F
N
7
Wind Variable Wind from ESE
Gusts 13.0 mph

Today
High -- | Low -- °F
--% Chance of Precip.
Yesterday
High -- | Low -- °F
Precip. -- in
6:36 AM 8:36 PM
Waxing Crescent, 30% visible
Pressure 30.32 in
Visibility 10.0 miles
Clouds Clear
Heat Index 78 °F
Dew Point 59 °F
Humidity 55%
Rainfall in
Snow Depth Not available.
UV 8 out of 12
Pollen 6.50 out of 12
Air Quality Not available.
Flu Activity Sporadic
METAR KCSG 231451Z 15011G19KT 10SM CLR 25/12 A3034 RMK AO2 SLP268 T02500117 50010

More Conditions Fewer Conditions

Pressure 30.32 in
Visibility 10.0 miles
Clouds Clear
Heat Index 78 °F
Dew Point 59 °F
Humidity 55%
Rainfall in
Snow Depth Not available.
UV 8 out of 12
Pollen 6.50 out of 12
Air Quality Not available.
Flu Activity Sporadic
METAR KCSG 231451Z 15011G19KT 10SM CLR 25/12 A3034 RMK AO2 SLP268 T02500117 50010

More Conditions Fewer Conditions

10-Day Weather Forecast

Almanac

Astronomy

May. 23, 2015 Rise Set
Actual Time
Civil Twilight
Nautical Twilight
Astronomical Twilight
Moon
Length of Visible Light
Length of Day
Tomorrow will be .
, % of the Moon is Illuminated

Today's Extremes

State Highs State Lows

Community

WunderPhotos

Upload Photos

1,823,480 photos uploaded!

WunderBlogs® & News

Nearby

Air Quality

  Air Quality AQ Index Pollutant
Not available.

Snow Depth

Station Depth Elevation

Earthquake Activity

City Distance Mag. Time & Date
Minimum magnitude displayed is 2.5.

Coastal Water Temperatures

Place Temperature

Stations

Nearby Weather Stations

Station Location Temp. Windchill Dew Point Humidity Wind Precip. Elev Updated Type